.
WxDataArchive / Data Records for 2010-07-01
2010-06-30 July 2010 2010-07-02

Data Records for Thursday, 01 July 2010

Time	Temp	Chill	HIndex	Humid	Dewpt	 Wind 	HiWind	WindDir	Rain 	Barom 
-----	----	-----	------	-----	-----	------	------	-------	-----	----- 
00:00	59.8	59.8	59.8	77	52.6	0	0	---	0.00	30.262 
00:05	59.5	59.5	59.5	78	52.6	0	0	---	0.00	30.262 
00:10	59.3	59.3	59.3	78	52.4	0	0	---	0.00	30.262 
00:15	59.2	59.2	59.2	78	52.3	0	0	---	0.00	30.263 
00:20	59.0	59.0	59.0	79	52.5	0	0	---	0.00	30.263 
00:25	58.9	58.9	58.9	80	52.7	0	0	---	0.00	30.263 
00:30	58.7	58.7	58.7	80	52.5	0	0	---	0.00	30.268 
00:35	58.6	58.6	58.6	81	52.8	0	0	---	0.00	30.268 
00:40	58.4	58.4	58.4	81	52.6	0	0	---	0.00	30.268 
00:45	58.3	58.3	58.3	81	52.5	0	0	---	0.00	30.273 
00:50	58.3	58.3	58.3	81	52.5	0	0	---	0.00	30.273 
00:55	58.1	58.1	58.1	81	52.3	0	0	---	0.00	30.273 
01:00	58.1	58.1	58.1	81	52.3	0	0	---	0.00	30.276 
01:05	58.3	58.3	58.3	81	52.5	0	0	---	0.00	30.276 
01:10	58.3	58.3	58.3	81	52.5	0	0	---	0.00	30.276 
01:15	58.3	58.3	58.3	81	52.5	0	0	---	0.00	30.277 
01:20	58.3	58.3	58.3	81	52.5	0	0	---	0.00	30.277 
01:25	58.3	58.3	58.3	81	52.5	0	0	---	0.00	30.277 
01:30	58.3	58.3	58.3	81	52.5	0	0	---	0.00	30.281 
01:35	58.1	58.1	58.1	81	52.3	0	0	---	0.00	30.281 
01:40	58.1	58.1	58.1	81	52.3	0	0	---	0.00	30.281 
01:45	58.0	58.0	58.0	81	52.2	0	0	---	0.00	30.286 
01:50	57.8	57.8	57.8	81	52.0	0	0	---	0.00	30.286 
01:55	57.6	57.6	57.6	81	51.8	0	0	---	0.00	30.286 
02:00	57.5	57.5	57.5	81	51.7	0	0	---	0.00	30.288 
02:05	57.3	57.3	57.3	81	51.5	0	0	---	0.00	30.288 
02:10	57.2	57.2	57.2	82	51.8	0	0	---	0.00	30.288 
02:15	57.0	57.0	57.0	83	51.9	0	0	---	0.00	30.290 
02:20	56.9	56.9	56.9	84	52.1	0	0	---	0.00	30.290 
02:25	56.7	56.7	56.7	84	51.9	0	0	---	0.00	30.290 
02:30	56.6	56.6	56.6	84	51.8	0	0	---	0.00	30.289 
02:35	56.6	56.6	56.6	85	52.1	0	0	---	0.00	30.289 
02:40	56.5	56.5	56.5	85	52.0	0	0	---	0.00	30.289 
02:45	56.3	56.3	56.3	85	51.8	0	0	---	0.00	30.292 
02:50	56.2	56.2	56.2	86	52.1	0	0	---	0.00	30.292 
02:55	56.0	56.0	56.0	86	51.9	0	0	---	0.00	30.292 
03:00	56.0	56.0	56.0	86	51.9	0	0	---	0.00	30.294 
03:05	56.0	56.0	56.0	86	51.9	0	0	---	0.00	30.294 
03:10	55.9	55.9	55.9	86	51.8	0	0	---	0.00	30.294 
03:15	55.7	55.7	55.7	86	51.6	0	0	---	0.00	30.291 
03:20	55.7	55.7	55.7	87	51.9	0	0	---	0.00	30.291 
03:25	55.6	55.6	55.6	87	51.8	0	0	---	0.00	30.291 
03:30	55.4	55.4	55.4	87	51.6	0	0	---	0.00	30.291 
03:35	55.4	55.4	55.4	88	51.9	0	0	---	0.00	30.291 
03:40	55.4	55.4	55.4	88	51.9	0	0	---	0.00	30.291 
03:45	55.3	55.3	55.3	88	51.8	0	0	---	0.00	30.293 
03:50	55.3	55.3	55.3	88	51.8	0	0	---	0.00	30.293 
03:55	55.1	55.1	55.1	88	51.6	0	0	---	0.00	30.293 
04:00	55.1	55.1	55.1	88	51.6	0	0	---	0.00	30.295 
04:05	55.0	55.0	55.0	88	51.5	0	0	---	0.00	30.295 
04:10	54.8	54.8	54.8	88	51.3	0	0	---	0.00	30.295 
04:15	54.7	54.7	54.7	88	51.2	0	0	---	0.00	30.295 
04:20	54.5	54.5	54.5	88	51.0	0	0	---	0.00	30.295 
04:25	54.4	54.4	54.4	88	50.9	0	0	---	0.00	30.295 
04:30	54.4	54.4	54.4	88	50.9	0	0	---	0.00	30.296 
04:35	54.2	54.2	54.2	88	50.7	0	0	---	0.00	30.296 
04:40	54.1	54.1	54.1	88	50.6	0	0	---	0.00	30.296 
04:45	53.9	53.9	53.9	89	50.7	0	0	---	0.00	30.297 
04:50	53.9	53.9	53.9	89	50.7	0	0	---	0.00	30.297 
04:55	53.8	53.8	53.8	89	50.6	0	0	---	0.00	30.297 
05:00	53.6	53.6	53.6	89	50.4	0	0	---	0.00	30.297 
05:05	53.6	53.6	53.6	89	50.4	0	0	---	0.00	30.297 
05:10	53.5	53.5	53.5	89	50.3	0	0	---	0.00	30.297 
05:15	53.5	53.5	53.5	90	50.6	0	0	---	0.00	30.300 
05:20	53.5	53.5	53.5	90	50.6	0	0	---	0.00	30.300 
05:25	53.5	53.5	53.5	90	50.6	0	0	---	0.00	30.300 
05:30	53.5	53.5	53.5	90	50.6	0	0	---	0.00	30.305 
05:35	53.5	53.5	53.5	89	50.3	0	0	---	0.00	30.305 
05:40	53.5	53.5	53.5	89	50.3	0	0	---	0.00	30.305 
05:45	53.5	53.5	53.5	89	50.3	0	0	---	0.00	30.314 
05:50	53.5	53.5	53.5	89	50.3	0	0	---	0.00	30.314 
05:55	53.5	53.5	53.5	89	50.3	0	0	---	0.00	30.314 
06:00	53.5	53.5	53.5	89	50.3	0	0	---	0.00	30.316 
06:05	53.3	53.3	53.3	88	49.8	0	0	---	0.00	30.316 
06:10	53.3	53.3	53.3	88	49.8	0	0	---	0.00	30.316 
06:15	53.3	53.3	53.3	88	49.8	0	0	---	0.00	30.327 
06:20	53.2	53.2	53.2	88	49.7	0	0	---	0.00	30.327 
06:25	53.2	53.2	53.2	88	49.7	0	0	---	0.00	30.327 
06:30	53.2	53.2	53.2	88	49.7	0	0	---	0.00	30.331 
06:35	53.2	53.2	53.2	88	49.7	0	0	---	0.00	30.331 
06:40	53.1	53.1	53.1	88	49.6	0	0	---	0.00	30.331 
06:45	53.1	53.1	53.1	88	49.6	0	0	---	0.00	30.336 
06:50	53.1	53.1	53.1	88	49.6	0	0	---	0.00	30.336 
06:55	53.2	53.2	53.2	89	50.0	0	0	---	0.00	30.336 
07:00	53.2	53.2	53.2	89	50.0	0	0	---	0.00	30.340 
07:05	53.3	53.3	53.3	89	50.1	0	0	---	0.00	30.340 
07:10	53.6	53.6	53.6	89	50.4	0	0	---	0.00	30.340 
07:15	53.8	53.8	53.8	88	50.3	0	0	---	0.00	30.344 
07:20	54.1	54.1	54.1	88	50.6	0	0	---	0.00	30.344 
07:25	54.5	54.5	54.5	86	50.4	0	1	202	0.00	30.344 
07:30	55.3	55.3	55.3	84	50.5	0	1	202	0.00	30.344 
07:35	56.3	56.3	56.3	81	50.5	0	3	202	0.00	30.344 
07:40	57.2	57.2	57.2	78	50.4	0	3	135	0.00	30.344 
07:45	58.0	58.0	58.0	75	50.1	0	1	135	0.00	30.345 
07:50	58.7	58.7	58.7	73	50.1	0	1	135	0.00	30.345 
07:55	59.6	59.6	59.6	72	50.6	0	2	135	0.00	30.345 
08:00	60.5	60.5	60.5	68	49.9	0	2	135	0.00	30.345 
08:05	61.3	61.3	61.3	66	49.8	0	2	135	0.00	30.345 
08:10	62.1	62.1	62.1	62	48.9	1	3	135	0.00	30.345 
08:15	62.9	62.9	62.9	61	49.2	1	2	135	0.00	30.347 
08:20	63.2	63.2	63.2	60	49.1	0	3	135	0.00	30.347 
08:25	63.5	63.5	63.5	58	48.5	1	3	90	0.00	30.347 
08:30	64.0	64.0	64.0	58	48.9	1	4	90	0.00	30.354 
08:35	64.3	64.3	64.3	58	49.2	0	2	90	0.00	30.354 
08:40	64.7	64.7	64.7	58	49.6	0	2	90	0.00	30.354 
08:45	64.8	64.8	64.8	57	49.2	0	1	90	0.00	30.356 
08:50	65.2	65.2	65.2	56	49.1	1	3	90	0.00	30.356 
08:55	65.6	65.6	65.6	54	48.5	1	3	90	0.00	30.356 
09:00	66.0	66.0	66.0	55	49.4	0	1	90	0.00	30.355 
09:05	66.1	66.1	66.1	52	48.0	1	4	90	0.00	30.355 
09:10	66.3	66.3	66.3	54	49.1	1	4	112	0.00	30.355 
09:15	66.4	66.4	66.4	50	47.2	2	4	112	0.00	30.359 
09:20	66.9	66.9	66.9	53	49.2	0	1	45	0.00	30.359 
09:25	67.1	67.1	67.1	49	47.3	2	4	112	0.00	30.359 
09:30	67.1	67.1	67.1	46	45.6	1	4	112	0.00	30.356 
09:35	67.1	67.1	67.1	46	45.6	2	4	90	0.00	30.356 
09:40	67.4	67.4	67.4	50	48.1	1	3	135	0.00	30.356 
09:45	67.8	67.8	67.8	48	47.4	1	4	112	0.00	30.357 
09:50	68.3	68.3	68.3	49	48.4	1	3	112	0.00	30.357 
09:55	68.4	68.4	68.4	47	47.4	0	3	112	0.00	30.357 
10:00	68.6	68.6	68.6	48	48.1	0	1	112	0.00	30.359 
10:05	68.8	68.8	68.8	49	48.8	0	1	112	0.00	30.359 
10:10	69.3	69.3	69.3	49	49.3	1	4	112	0.00	30.359 
10:15	69.8	69.8	69.8	48	49.2	0	2	22	0.00	30.363 
10:20	69.8	69.8	69.8	48	49.2	0	2	22	0.00	30.363 
10:25	69.8	69.8	69.8	46	48.1	0	3	68	0.00	30.363 
10:30	70.1	70.1	70.1	47	48.9	1	3	68	0.00	30.366 
10:35	70.4	70.4	70.4	44	47.4	1	3	68	0.00	30.366 
10:40	70.4	70.4	70.4	44	47.4	0	3	68	0.00	30.366 
10:45	70.8	70.8	70.8	45	48.4	0	2	90	0.00	30.359 
10:50	70.9	70.9	70.9	46	49.1	0	2	90	0.00	30.359 
10:55	70.6	70.6	70.6	43	47.0	1	2	90	0.00	30.359 
11:00	70.1	70.1	70.1	44	47.2	1	3	270	0.00	30.360 
11:05	70.3	70.3	70.3	41	45.5	1	3	338	0.00	30.360 
11:10	70.8	70.8	70.8	42	46.6	1	3	90	0.00	30.360 
11:15	70.8	70.8	70.8	40	45.3	0	3	338	0.00	30.359 
11:20	70.9	70.9	70.9	43	47.3	1	4	90	0.00	30.359 
11:25	71.1	71.1	71.1	41	46.2	1	5	90	0.00	30.359 
11:30	71.6	71.6	71.6	39	45.3	1	5	90	0.00	30.356 
11:35	71.6	71.6	71.6	39	45.3	1	6	112	0.00	30.356 
11:40	72.0	72.0	72.0	40	46.3	1	6	112	0.00	30.356 
11:45	72.5	72.5	72.5	40	46.8	1	4	112	0.00	30.357 
11:50	72.1	72.1	72.1	40	46.4	1	4	270	0.00	30.357 
11:55	72.3	72.3	72.3	42	47.9	1	3	135	0.00	30.357 
12:00	72.0	72.0	72.0	39	45.7	1	4	0	0.00	30.357 
12:05	71.8	71.8	71.8	39	45.5	1	5	315	0.00	30.357 
12:10	72.5	72.5	72.5	43	48.7	1	5	112	0.00	30.357 
12:15	72.7	72.7	72.7	40	47.0	1	4	292	0.00	30.356 
12:20	73.0	73.0	73.0	39	46.6	1	4	112	0.00	30.356 
12:25	73.7	73.7	73.7	36	45.1	1	6	135	0.00	30.356 
12:30	74.4	74.4	74.4	38	47.1	2	7	112	0.00	30.350 
12:35	74.6	74.6	74.6	40	48.7	1	5	112	0.00	30.350 
12:40	74.2	74.2	74.2	38	46.9	1	6	112	0.00	30.350 
12:45	74.0	74.0	74.0	37	46.1	2	8	68	0.00	30.352 
12:50	74.0	74.0	74.0	38	46.8	1	4	135	0.00	30.352 
12:55	74.2	74.2	74.2	38	46.9	3	8	90	0.00	30.352 
13:00	74.4	74.4	74.4	39	47.8	1	5	112	0.00	30.343 
13:05	74.4	74.4	74.4	36	45.7	2	6	135	0.00	30.343 
13:10	74.4	74.4	74.4	35	44.9	1	4	0	0.00	30.343 
13:15	74.4	74.4	74.4	38	47.1	1	4	270	0.00	30.343 
13:20	74.4	74.4	74.4	41	49.1	1	2	315	0.00	30.343 
13:25	74.2	74.2	74.2	36	45.5	1	4	270	0.00	30.343 
13:30	74.2	74.2	74.2	37	46.2	0	3	270	0.00	30.341 
13:35	74.2	74.2	74.2	35	44.8	1	4	158	0.00	30.341 
13:40	74.2	74.2	74.2	42	49.6	1	5	112	0.00	30.341 
13:45	74.6	74.6	74.6	37	46.6	1	4	90	0.00	30.341 
13:50	75.3	75.3	77.3	34	45.0	2	8	112	0.00	30.341 
13:55	75.3	75.3	77.4	35	45.7	1	6	90	0.00	30.341 
14:00	75.4	75.4	77.4	36	46.6	2	7	90	0.00	30.341 
14:05	75.6	75.6	77.6	39	48.9	2	9	90	0.00	30.341 
14:10	75.4	75.4	77.6	41	50.0	1	3	22	0.00	30.341 
14:15	75.4	75.4	77.5	37	47.3	0	2	270	0.00	30.343 
14:20	75.3	75.3	77.4	35	45.7	1	3	90	0.00	30.343 
14:25	75.4	75.4	77.3	34	45.1	0	2	112	0.00	30.343 
14:30	75.6	75.6	77.6	38	48.2	1	5	112	0.00	30.337 
14:35	75.4	75.4	77.4	35	45.8	2	6	112	0.00	30.337 
14:40	75.6	75.6	77.4	34	45.2	1	5	135	0.00	30.337 
14:45	75.4	75.4	77.5	37	47.3	1	4	135	0.00	30.336 
14:50	75.6	75.6	77.7	40	49.6	1	4	292	0.00	30.336 
14:55	75.6	75.6	77.3	32	43.6	1	3	112	0.00	30.336 
15:00	76.1	76.1	77.6	35	46.4	1	3	112	0.00	30.337 
15:05	76.0	76.0	77.4	32	44.0	0	3	112	0.00	30.337 
15:10	76.3	76.3	77.7	35	46.6	1	3	112	0.00	30.337 
15:15	76.5	76.5	77.4	29	41.9	2	9	45	0.00	30.334 
15:20	76.7	76.7	77.9	36	47.7	1	4	90	0.00	30.334 
15:25	76.3	76.3	77.5	31	43.4	0	3	68	0.00	30.334 
15:30	76.7	76.7	77.9	35	47.0	1	4	112	0.00	30.334 
15:35	76.7	76.7	77.7	33	45.4	2	6	112	0.00	30.334 
15:40	76.5	76.5	77.6	32	44.4	1	3	90	0.00	30.334 
15:45	76.1	76.1	77.4	31	43.3	1	3	112	0.00	30.335 
15:50	76.3	76.3	77.7	35	46.6	2	5	90	0.00	30.335 
15:55	76.3	76.3	77.5	31	43.4	2	5	90	0.00	30.335 
16:00	76.5	76.5	77.8	36	47.5	1	5	90	0.00	30.327 
16:05	76.7	76.7	77.6	31	43.8	1	6	90	0.00	30.327 
16:10	77.0	77.0	78.0	35	47.2	0	4	112	0.00	30.327 
16:15	77.2	77.2	78.0	34	46.6	2	9	90	0.00	30.322 
16:20	77.2	77.2	77.8	30	43.3	0	2	90	0.00	30.322 
16:25	77.0	77.0	77.7	30	43.2	1	3	270	0.00	30.322 
16:30	76.8	76.8	77.5	28	41.2	1	4	112	0.00	30.322 
16:35	76.8	76.8	77.8	33	45.5	2	5	112	0.00	30.322 
16:40	76.5	76.5	77.6	32	44.4	1	3	270	0.00	30.322 
16:45	76.7	76.7	77.4	28	41.1	1	6	90	0.00	30.317 
16:50	77.0	77.0	77.5	27	40.4	1	3	90	0.00	30.317 
16:55	76.8	76.8	77.4	27	40.3	1	4	135	0.00	30.317 
17:00	76.7	76.7	77.5	29	42.0	0	3	225	0.00	30.314 
17:05	76.7	76.7	77.4	28	41.1	1	3	135	0.00	30.314 
17:10	76.8	76.8	77.7	32	44.7	0	1	180	0.00	30.314 
17:15	77.2	77.2	77.7	29	42.5	0	1	180	0.00	30.313 
17:20	77.0	77.0	77.5	27	40.4	1	2	180	0.00	30.313 
17:25	76.8	76.8	77.4	27	40.3	0	1	270	0.00	30.313 
17:30	77.0	77.0	77.5	27	40.4	1	4	90	0.00	30.312 
17:35	76.8	76.8	77.6	30	43.0	1	4	90	0.00	30.312 
17:40	76.7	76.7	77.5	29	42.0	1	4	112	0.00	30.312 
17:45	76.7	76.7	77.5	29	42.0	1	3	112	0.00	30.308 
17:50	76.5	76.5	77.5	30	42.7	1	4	112	0.00	30.308 
17:55	76.3	76.3	77.3	29	41.7	1	4	112	0.00	30.308 
18:00	76.1	76.1	77.2	29	41.5	1	3	90	0.00	30.302 
18:05	76.0	76.0	77.3	30	42.3	0	1	90	0.00	30.302 
18:10	75.8	75.8	77.1	29	41.3	1	3	90	0.00	30.302 
18:15	75.6	75.6	77.1	29	41.1	1	4	90	0.00	30.299 
18:20	75.3	75.3	77.0	30	41.7	0	1	90	0.00	30.299 
18:25	74.9	74.9	74.9	29	40.5	0	2	90	0.00	30.299 
18:30	74.7	74.7	74.7	27	38.5	0	2	248	0.00	30.291 
18:35	74.7	74.7	74.7	28	39.4	1	3	112	0.00	30.291 
18:40	74.6	74.6	74.6	28	39.3	0	1	112	0.00	30.291 
18:45	74.4	74.4	74.4	30	40.9	0	2	112	0.00	30.285 
18:50	74.4	74.4	74.4	31	41.8	0	1	112	0.00	30.285 
18:55	74.2	74.2	74.2	30	40.8	1	3	112	0.00	30.285 
19:00	74.0	74.0	74.0	31	41.4	0	2	112	0.00	30.285 
19:05	74.0	74.0	74.0	31	41.4	0	1	112	0.00	30.285 
19:10	73.9	73.9	73.9	31	41.3	0	2	112	0.00	30.285 
19:15	73.9	73.9	73.9	31	41.3	0	3	112	0.00	30.278 
19:20	73.7	73.7	73.7	31	41.2	0	3	112	0.00	30.278 
19:25	73.5	73.5	73.5	28	38.4	1	3	112	0.00	30.278 
19:30	73.5	73.5	73.5	31	41.0	0	0	---	0.00	30.278 
19:35	73.5	73.5	73.5	31	41.0	0	2	112	0.00	30.278 
19:40	73.3	73.3	73.3	32	41.6	0	2	112	0.00	30.278 
19:45	73.2	73.2	73.2	30	39.9	1	2	112	0.00	30.278 
19:50	73.2	73.2	73.2	31	40.7	0	2	112	0.00	30.278 
19:55	73.0	73.0	73.0	33	42.2	0	2	112	0.00	30.278 
20:00	73.0	73.0	73.0	35	43.7	0	0	---	0.00	30.276 
20:05	72.8	72.8	72.8	33	42.0	0	3	112	0.00	30.276 
20:10	72.7	72.7	72.7	32	41.1	0	1	112	0.00	30.276 
20:15	72.5	72.5	72.5	35	43.3	0	1	112	0.00	30.273 
20:20	72.3	72.3	72.3	35	43.1	0	1	112	0.00	30.273 
20:25	72.1	72.1	72.1	35	42.9	0	0	---	0.00	30.273 
20:30	72.0	72.0	72.0	36	43.6	0	1	112	0.00	30.273 
20:35	71.6	71.6	71.6	37	43.9	0	1	112	0.00	30.273 
20:40	71.3	71.3	71.3	38	44.4	0	0	---	0.00	30.273 
20:45	71.1	71.1	71.1	40	45.5	0	0	---	0.00	30.274 
20:50	70.6	70.6	70.6	39	44.4	0	0	---	0.00	30.274 
20:55	70.3	70.3	70.3	40	44.8	0	0	---	0.00	30.274 
21:00	69.8	69.8	69.8	39	43.7	0	0	---	0.00	30.268 
21:05	69.4	69.4	69.4	41	44.7	0	0	---	0.00	30.268 
21:10	68.9	68.9	68.9	41	44.2	0	0	---	0.00	30.268 
21:15	68.4	68.4	68.4	43	45.0	0	0	---	0.00	30.272 
21:20	67.9	67.9	67.9	43	44.6	0	0	---	0.00	30.272 
21:25	67.6	67.6	67.6	46	46.1	0	0	---	0.00	30.272 
21:30	66.9	66.9	66.9	46	45.4	0	0	---	0.00	30.275 
21:35	66.4	66.4	66.4	49	46.7	0	0	---	0.00	30.275 
21:40	66.0	66.0	66.0	50	46.8	0	0	---	0.00	30.275 
21:45	65.5	65.5	65.5	52	47.4	0	0	---	0.00	30.278 
21:50	65.0	65.0	65.0	54	47.9	0	0	---	0.00	30.278 
21:55	64.3	64.3	64.3	56	48.3	0	0	---	0.00	30.278 
22:00	64.0	64.0	64.0	57	48.5	0	0	---	0.00	30.292 
22:05	63.7	63.7	63.7	57	48.2	0	0	---	0.00	30.292 
22:10	63.2	63.2	63.2	58	48.2	0	0	---	0.00	30.292 
22:15	62.9	62.9	62.9	61	49.2	0	0	---	0.00	30.294 
22:20	62.6	62.6	62.6	62	49.4	0	0	---	0.00	30.294 
22:25	62.3	62.3	62.3	62	49.1	0	0	---	0.00	30.294 
22:30	62.0	62.0	62.0	63	49.3	0	0	---	0.00	30.294 
22:35	61.6	61.6	61.6	63	48.9	0	0	---	0.00	30.294 
22:40	61.3	61.3	61.3	64	49.0	0	0	---	0.00	30.294 
22:45	61.2	61.2	61.2	65	49.3	0	0	---	0.00	30.295 
22:50	60.9	60.9	60.9	67	49.9	0	0	---	0.00	30.295 
22:55	60.7	60.7	60.7	68	50.1	0	0	---	0.00	30.295 
23:00	60.4	60.4	60.4	69	50.2	0	0	---	0.00	30.297 
23:05	60.2	60.2	60.2	70	50.4	0	0	---	0.00	30.297 
23:10	60.1	60.1	60.1	70	50.3	0	0	---	0.00	30.297 
23:15	59.9	59.9	59.9	70	50.1	0	0	---	0.00	30.297 
23:20	59.6	59.6	59.6	70	49.8	0	0	---	0.00	30.297 
23:25	59.5	59.5	59.5	70	49.7	0	0	---	0.00	30.297 
23:30	59.3	59.3	59.3	71	49.9	0	0	---	0.00	30.299 
23:35	59.2	59.2	59.2	71	49.8	0	0	---	0.00	30.299 
23:40	58.9	58.9	58.9	71	49.5	0	0	---	0.00	30.299 
23:45	58.7	58.7	58.7	73	50.1	0	0	---	0.00	30.301 
23:50	58.6	58.6	58.6	73	50.0	0	0	---	0.00	30.301 
23:55	58.3	58.3	58.3	73	49.7	0	0	---	0.00	30.301 

CoCoRaHS
IN-AL-39
A2 Web Hosting
Creative Commons License
GoDaddy
search engine by freefind advanced

loaded 2018-11-13 22:37:46 • last modified 2010-11-18 10:43:29
Privacy PolicyDisclaimer
• wx.awcolley.com is powered by PmWiki v.2002016 •
• all content (unless otherwise noted) © 2018 A W Colley